Time;durP1;ratioP1;P1;durP2;ratioP2;P2;SDS_P1;SDS_P2;PMS_P1;PMS_P2;Temp;Humidity;BMP_temperature;BMP_pressure;BME280_temperature;BME280_humidity;BME280_pressure;Samples;Min_cycle;Max_cycle;Signal;HPM_P1;HPM_P2
2022/04/12 00:01:34;;;;;;;5.87;3.65;;;;;;;4.94;56.05;100259.31;4468429;32;33840;-70
2022/04/12 00:04:02;;;;;;;6.53;3.50;;;;;;;4.50;56.97;100254.31;4467047;32;33170;-70
2022/04/12 00:06:30;;;;;;;5.50;3.40;;;;;;;4.09;58.43;100258.56;4467001;32;33903;-72
2022/04/12 00:08:58;;;;;;;5.60;3.47;;;;;;;4.19;58.84;100241.28;4467916;32;35144;-72
2022/04/12 00:11:26;;;;;;;5.18;3.28;;;;;;;4.15;58.95;100253.44;4469068;32;34898;-69
2022/04/12 00:13:53;;;;;;;5.35;2.95;;;;;;;4.66;56.91;100258.56;4483477;32;34361;-70
2022/04/12 00:16:21;;;;;;;5.12;3.42;;;;;;;4.88;57.39;100259.28;4484226;32;34690;-69
2022/04/12 00:19:04;;;;;;;2.92;1.95;;;;;;;4.17;59.26;100260.28;4484147;32;35059;-71
2022/04/12 00:21:36;;;;;;;4.62;3.15;;;;;;;4.30;58.25;100249.66;4481632;32;34027;-69
2022/04/12 00:24:07;;;;;;;4.53;2.95;;;;;;;4.25;57.82;100249.38;4468173;32;34007;-70
2022/04/12 00:26:34;;;;;;;5.57;2.87;;;;;;;4.39;57.05;100246.81;4468409;32;34919;-69
2022/04/12 00:29:03;;;;;;;4.07;2.80;;;;;;;4.90;55.51;100243.78;4468231;32;34753;-71
2022/04/12 00:31:31;;;;;;;4.10;2.70;;;;;;;4.21;57.83;100242.78;4473047;32;34157;-68
2022/04/12 00:33:59;;;;;;;5.22;3.30;;;;;;;4.36;57.51;100236.44;4467972;32;33697;-71
2022/04/12 00:36:27;;;;;;;4.85;2.87;;;;;;;4.21;58.04;100232.03;4468407;32;33887;-71
2022/04/12 00:38:54;;;;;;;4.45;3.00;;;;;;;4.48;56.60;100238.41;4453775;32;34301;-71
2022/04/12 00:41:22;;;;;;;5.70;3.30;;;;;;;4.01;57.43;100229.16;4468028;32;34551;-71
2022/04/12 00:43:50;;;;;;;4.60;2.60;;;;;;;4.18;57.86;100220.84;4483479;32;34170;-70
2022/04/12 00:46:17;;;;;;;5.03;3.03;;;;;;;4.30;57.63;100228.16;4483654;32;33767;-70
2022/04/12 00:48:45;;;;;;;4.85;3.00;;;;;;;4.90;56.55;100228.50;4483822;32;34335;-69
2022/04/12 00:51:12;;;;;;;3.85;2.80;;;;;;;5.19;55.88;100231.09;4473120;32;34569;-70
2022/04/12 00:53:40;;;;;;;4.65;3.00;;;;;;;4.43;57.93;100224.72;4468616;32;33153;-70
2022/04/12 00:56:08;;;;;;;4.10;2.80;;;;;;;4.34;59.10;100230.44;4483627;32;34085;-70
2022/04/12 00:58:36;;;;;;;4.60;2.67;;;;;;;4.20;59.18;100227.66;4483383;32;34229;-70
2022/04/12 01:01:03;;;;;;;4.43;2.62;;;;;;;4.15;58.70;100232.81;4482200;32;34225;-70
2022/04/12 01:03:31;;;;;;;5.50;2.87;;;;;;;4.51;58.83;100239.84;4468516;32;33462;-69
2022/04/12 01:05:58;;;;;;;4.95;3.03;;;;;;;4.20;59.65;100230.34;4467756;32;33874;-69
2022/04/12 01:08:26;;;;;;;3.85;2.62;;;;;;;4.41;59.01;100231.34;4467540;32;34176;-70
2022/04/12 01:10:54;;;;;;;5.50;3.08;;;;;;;4.60;57.73;100230.63;4460700;32;34207;-70
2022/04/12 01:13:21;;;;;;;4.62;2.90;;;;;;;4.45;57.49;100228.06;4469891;32;34206;-71
2022/04/12 01:15:49;;;;;;;4.60;2.87;;;;;;;4.11;58.58;100229.66;4467678;32;33607;-69
2022/04/12 01:18:16;;;;;;;3.50;2.60;;;;;;;4.15;58.95;100227.44;4467609;32;34234;-70
2022/04/12 01:20:44;;;;;;;4.37;2.70;;;;;;;4.50;58.14;100228.28;4468184;32;34612;-70
2022/04/12 01:23:22;;;;;;;4.47;2.75;;;;;;;4.14;59.80;100219.56;4480213;32;33412;-69
2022/04/12 01:25:49;;;;;;;3.62;2.50;;;;;;;4.02;59.88;100225.47;4485472;32;34704;-69
2022/04/12 01:28:17;;;;;;;5.72;2.92;;;;;;;4.29;59.02;100225.66;4484257;32;34258;-68
2022/04/12 01:30:44;;;;;;;4.22;2.70;;;;;;;4.46;58.07;100220.81;4485382;32;34622;-71
2022/04/12 01:33:12;;;;;;;4.45;2.83;;;;;;;4.64;58.04;100220.28;4473440;32;34225;-69
2022/04/12 01:35:39;;;;;;;6.40;3.30;;;;;;;4.38;59.18;100215.59;4469758;32;33508;-69
2022/04/12 01:38:07;;;;;;;5.25;3.25;;;;;;;4.31;59.10;100216.37;4469578;32;33940;-70
2022/04/12 01:40:34;;;;;;;6.50;4.10;;;;;;;4.38;59.56;100224.47;4469590;32;33541;-69
2022/04/12 01:43:02;;;;;;;7.57;4.62;;;;;;;4.46;59.56;100218.12;4479206;32;34319;-69
2022/04/12 01:45:29;;;;;;;8.60;4.87;;;;;;;4.45;59.59;100219.13;4483729;32;33092;-69
2022/04/12 01:47:57;;;;;;;7.47;4.20;;;;;;;4.38;58.39;100223.66;4485217;32;34058;-69
2022/04/12 01:50:24;;;;;;;7.37;5.10;;;;;;;4.15;59.71;100224.75;4485351;32;34768;-69
2022/04/12 01:52:52;;;;;;;7.72;4.82;;;;;;;4.15;59.61;100224.75;4475754;32;34652;-70
2022/04/12 01:55:19;;;;;;;7.45;4.65;;;;;;;4.04;60.00;100223.44;4469579;32;33727;-70
2022/04/12 01:57:47;;;;;;;6.80;4.50;;;;;;;3.58;61.22;100226.50;4469373;32;33806;-70
2022/04/12 02:00:14;;;;;;;6.78;4.18;;;;;;;3.86;59.88;100234.59;4469437;32;33791;-71
2022/04/12 02:02:42;;;;;;;6.80;4.20;;;;;;;3.26;60.98;100225.12;4476577;32;34148;-71
2022/04/12 02:05:10;;;;;;;5.97;4.20;;;;;;;3.47;59.93;100227.84;4484105;32;34105;-69
2022/04/12 02:07:37;;;;;;;6.75;4.35;;;;;;;3.92;58.37;100232.19;4484960;32;34295;-69
2022/04/12 02:10:05;;;;;;;8.45;4.75;;;;;;;3.57;60.75;100229.41;4484405;32;33894;-71
2022/04/12 02:12:32;;;;;;;7.10;4.80;;;;;;;3.81;60.01;100228.19;4478246;32;33510;-68
2022/04/12 02:15:00;;;;;;;6.90;4.30;;;;;;;4.05;59.49;100232.31;4469197;32;33604;-69
2022/04/12 02:17:28;;;;;;;7.55;4.57;;;;;;;3.33;61.75;100223.37;4469413;32;34194;-70
2022/04/12 02:19:55;;;;;;;4.15;3.10;;;;;;;3.16;62.07;100224.63;4468121;32;33714;-68
2022/04/12 02:22:23;;;;;;;6.25;4.05;;;;;;;3.29;61.47;100217.56;4473740;32;33204;-71
2022/04/12 02:24:51;;;;;;;5.15;3.72;;;;;;;3.60;60.80;100224.47;4485006;32;33816;-71
2022/04/12 02:27:18;;;;;;;5.55;3.42;;;;;;;3.53;60.30;100222.75;4484050;32;34153;-68
2022/04/12 02:29:45;;;;;;;6.45;3.65;;;;;;;3.91;58.95;100220.63;4484818;32;34545;-70
2022/04/12 02:32:13;;;;;;;0.80;0.80;;;;;;;3.84;59.38;100220.56;4482862;32;34179;-70
2022/04/12 02:34:41;;;;;;;5.45;3.30;;;;;;;4.11;60.08;100215.41;4484782;32;33931;-71
2022/04/12 02:37:09;;;;;;;6.20;3.80;;;;;;;3.73;60.56;100214.88;4484985;32;34757;-70
2022/04/12 02:39:36;;;;;;;6.62;3.75;;;;;;;3.76;60.20;100225.22;4484937;32;35051;-71
2022/04/12 02:42:04;;;;;;;5.22;3.25;;;;;;;3.90;59.17;100225.16;4480360;32;32371;-71
2022/04/12 02:44:31;;;;;;;0.55;0.50;;;;;;;3.55;60.20;100226.06;4469368;32;34140;-69
2022/04/12 02:46:59;;;;;;;4.85;2.80;;;;;;;3.60;60.50;100234.38;4467957;32;33035;-70
2022/04/12 02:49:27;;;;;;;0.45;0.45;;;;;;;3.82;59.96;100232.50;4469057;32;34703;-70
2022/04/12 02:51:54;;;;;;;6.60;3.62;;;;;;;3.91;59.23;100228.69;4469270;32;34097;-69
2022/04/12 02:54:21;;;;;;;0.70;0.70;;;;;;;3.57;60.11;100232.09;4484662;32;33747;-72
2022/04/12 02:56:49;;;;;;;4.45;2.80;;;;;;;3.66;59.60;100229.06;4484795;32;34012;-70
2022/04/12 02:59:17;;;;;;;5.30;3.15;;;;;;;3.55;60.58;100234.94;4484844;32;34067;-71
2022/04/12 03:01:44;;;;;;;4.90;2.78;;;;;;;2.91;62.09;100232.97;4484265;32;33359;-70
2022/04/12 03:04:12;;;;;;;5.03;2.60;;;;;;;3.33;61.03;100241.31;4468871;32;32238;-71
2022/04/12 03:06:39;;;;;;;5.53;3.25;;;;;;;3.54;60.98;100240.50;4468825;32;34025;-71
2022/04/12 03:09:07;;;;;;;6.18;3.20;;;;;;;3.64;60.99;100241.03;4469102;32;34001;-70
2022/04/12 03:11:35;;;;;;;0.50;0.50;;;;;;;3.13;62.35;100241.06;4468499;32;33380;-69
2022/04/12 03:14:03;;;;;;;5.03;3.10;;;;;;;3.13;62.23;100243.75;4482916;32;33902;-69
2022/04/12 03:16:31;;;;;;;4.53;2.92;;;;;;;2.82;62.80;100234.09;4484834;32;34624;-72
2022/04/12 03:18:58;;;;;;;4.45;2.22;;;;;;;2.88;62.64;100236.03;4484546;32;33779;-70
2022/04/12 03:21:26;;;;;;;4.72;3.20;;;;;;;3.17;62.10;100235.16;4484587;32;33426;-70
2022/04/12 03:23:53;;;;;;;4.45;3.05;;;;;;;2.85;62.39;100241.75;4470979;32;33955;-70
2022/04/12 03:26:21;;;;;;;6.30;3.08;;;;;;;3.26;61.50;100242.06;4471712;32;34266;-70
2022/04/12 03:28:48;;;;;;;4.87;3.00;;;;;;;3.44;61.27;100232.78;4484631;32;34044;-74
2022/04/12 03:31:16;;;;;;;4.75;2.85;;;;;;;3.25;60.38;100235.03;4483439;32;34544;-70
2022/04/12 03:33:46;;;;;;;5.93;3.03;;;;;;;3.45;61.14;100231.75;4471876;32;33905;-71
2022/04/12 03:36:13;;;;;;;4.45;2.85;;;;;;;3.04;62.46;100233.13;4467689;32;33527;-69
2022/04/12 03:38:48;;;;;;;0.98;0.90;;;;;;;3.31;61.19;100244.19;4468935;32;34581;-70
2022/04/12 03:41:18;;;;;;;5.15;3.20;;;;;;;3.60;59.58;100242.41;4468689;32;33299;-71
2022/04/12 03:43:47;;;;;;;6.40;3.12;;;;;;;3.17;61.79;100245.03;4478145;32;33429;-69
2022/04/12 03:46:14;;;;;;;5.70;2.65;;;;;;;2.77;62.94;100247.25;4483849;32;34257;-70
2022/04/12 03:48:42;;;;;;;1.65;1.05;;;;;;;2.86;63.23;100249.63;4484436;32;34388;-69
2022/04/12 03:51:10;;;;;;;4.82;2.75;;;;;;;3.08;62.98;100255.03;4479212;32;34236;-68
2022/04/12 03:53:38;;;;;;;5.97;3.10;;;;;;;3.47;62.39;100261.88;4483007;32;34199;-68
2022/04/12 03:56:07;;;;;;;4.82;2.72;;;;;;;3.31;63.00;100256.78;4483410;32;35056;-69
2022/04/12 03:58:36;;;;;;;4.47;2.75;;;;;;;3.19;63.25;100251.06;4484278;32;33833;-69
2022/04/12 04:01:04;;;;;;;4.70;3.17;;;;;;;3.36;63.09;100260.53;4483062;32;33248;-69
2022/04/12 04:03:32;;;;;;;6.82;3.33;;;;;;;2.85;64.32;100253.31;4482521;32;33991;-69
2022/04/12 04:06:00;;;;;;;4.87;3.00;;;;;;;2.78;64.55;100256.91;4482552;32;34443;-70
2022/04/12 04:08:27;;;;;;;5.53;3.12;;;;;;;2.87;64.05;100264.69;4483643;32;34089;-70
2022/04/12 04:10:55;;;;;;;2.15;1.58;;;;;;;3.41;62.74;100270.69;4483008;32;33347;-70
2022/04/12 04:13:24;;;;;;;6.07;3.50;;;;;;;3.39;62.51;100262.84;4475886;32;33787;-70
2022/04/12 04:15:53;;;;;;;4.78;3.15;;;;;;;3.28;62.52;100257.97;4482410;32;33789;-69
2022/04/12 04:18:21;;;;;;;1.75;1.30;;;;;;;3.54;62.60;100253.91;4482631;32;34171;-71
2022/04/12 04:20:48;;;;;;;4.95;3.00;;;;;;;3.49;62.74;100263.34;4484521;32;33670;-70
2022/04/12 04:23:15;;;;;;;4.90;2.90;;;;;;;3.15;62.98;100261.31;4475789;32;34443;-70
2022/04/12 04:25:43;;;;;;;3.87;2.70;;;;;;;2.91;63.39;100261.63;4467188;32;34406;-70
2022/04/12 04:28:12;;;;;;;4.55;2.80;;;;;;;2.81;63.71;100262.75;4468378;32;34537;-70
2022/04/12 04:30:47;;;;;;;7.40;3.50;;;;;;;2.93;63.89;100259.59;4468069;32;33954;-71
2022/04/12 04:33:15;;;;;;;;;;;;;;;3.46;62.60;100260.25;4475205;32;33801;-70
2022/04/12 04:35:42;;;;;;;4.85;2.70;;;;;;;4.69;59.41;100266.25;4481739;32;34439;-70
2022/04/12 04:38:09;;;;;;;5.78;3.10;;;;;;;4.65;58.68;100264.97;4476678;31;34045;-72
2022/04/12 04:40:37;;;;;;;5.50;3.12;;;;;;;5.04;58.30;100261.66;4467776;32;31974;-70
2022/04/12 04:43:05;;;;;;;5.28;2.60;;;;;;;5.40;57.05;100255.19;4479572;32;33920;-68
2022/04/12 04:45:33;;;;;;;4.50;3.17;;;;;;;5.47;56.32;100260.59;4482989;32;34146;-70
2022/04/12 04:48:03;;;;;;;6.60;3.22;;;;;;;6.01;55.13;100267.75;4483407;32;33552;-69
2022/04/12 04:50:32;;;;;;;5.47;3.10;;;;;;;6.40;54.08;100276.03;4481299;32;33336;-69
2022/04/12 04:53:02;;;;;;;5.35;3.20;;;;;;;7.29;52.01;100274.56;4472519;32;34179;-68
2022/04/12 04:55:30;;;;;;;5.15;3.10;;;;;;;7.96;49.67;100278.56;4465917;32;33960;-67
2022/04/12 04:57:59;;;;;;;4.05;2.83;;;;;;;8.19;46.79;100286.09;4478662;32;33808;-69
2022/04/12 05:00:29;;;;;;;5.90;3.28;;;;;;;8.70;45.50;100283.38;4485245;32;33495;-70
2022/04/12 05:02:58;;;;;;;4.57;3.08;;;;;;;9.11;43.49;100282.72;4476438;32;34025;-69
2022/04/12 05:05:26;;;;;;;5.87;3.80;;;;;;;9.83;42.68;100282.03;4469286;32;33898;-68
2022/04/12 05:07:55;;;;;;;5.10;3.30;;;;;;;10.31;41.41;100286.50;4468462;32;34145;-69
2022/04/12 05:10:32;;;;;;;5.03;2.87;;;;;;;10.64;41.80;100291.34;4469380;32;33785;-68
2022/04/12 05:13:00;;;;;;;5.87;3.28;;;;;;;11.64;39.30;100296.72;4476854;32;34013;-66
2022/04/12 05:15:28;;;;;;;4.03;2.97;;;;;;;11.90;37.10;100303.53;4483541;32;33827;-68
2022/04/12 05:18:02;;;;;;;5.68;3.80;;;;;;;12.27;37.72;100293.00;4484912;32;34123;-68
2022/04/12 05:20:29;;;;;;;6.32;4.07;;;;;;;12.16;36.80;100295.78;4484122;32;33363;-67
2022/04/12 05:22:57;;;;;;;9.40;6.20;;;;;;;12.65;35.12;100293.31;4468650;32;34014;-67
2022/04/12 05:25:24;;;;;;;5.55;3.80;;;;;;;12.72;35.95;100300.25;4468398;32;35030;-65
2022/04/12 05:27:52;;;;;;;5.47;4.07;;;;;;;12.51;35.75;100299.13;4481330;32;33976;-67
2022/04/12 05:30:21;;;;;;;6.53;4.47;;;;;;;12.53;35.57;100307.03;4481737;32;33242;-68
2022/04/12 05:32:48;;;;;;;6.55;4.57;;;;;;;13.24;34.32;100307.25;4468763;32;34021;-68
2022/04/12 05:35:16;;;;;;;8.23;5.05;;;;;;;13.61;33.75;100308.53;4471312;32;34002;-66
2022/04/12 05:37:46;;;;;;;8.35;4.62;;;;;;;13.63;33.20;100309.94;4484147;32;34036;-68
2022/04/12 05:40:14;;;;;;;9.48;6.05;;;;;;;13.48;34.45;100307.03;4482150;32;34674;-69
2022/04/12 05:42:42;;;;;;;10.52;6.12;;;;;;;13.85;33.88;100315.34;4468908;32;34446;-68
2022/04/12 05:45:11;;;;;;;9.50;6.72;;;;;;;14.20;33.90;100307.78;4468953;32;33718;-68
2022/04/12 05:47:47;;;;;;;10.20;7.00;;;;;;;14.64;33.07;100304.87;4468847;32;33932;-66
2022/04/12 05:50:14;;;;;;;11.48;6.55;;;;;;;14.34;34.06;100307.09;4476491;32;34389;-68
2022/04/12 05:52:43;;;;;;;11.43;6.87;;;;;;;14.52;33.09;100305.84;4476393;32;34685;-66
2022/04/12 05:55:15;;;;;;;10.75;7.10;;;;;;;14.10;33.00;100308.47;4484250;32;33955;-67
2022/04/12 05:57:50;;;;;;;11.50;6.97;;;;;;;12.58;36.53;100311.72;4483855;32;33904;-66
2022/04/12 06:00:21;;;;;;;10.02;6.93;;;;;;;13.19;36.84;100319.97;4482920;32;34660;-65
2022/04/12 06:02:50;;;;;;;9.23;6.50;;;;;;;12.04;37.35;100321.16;4468566;32;34529;-66
2022/04/12 06:05:18;;;;;;;10.88;7.05;;;;;;;13.43;35.33;100312.38;4469359;32;34271;-65
2022/04/12 06:07:45;;;;;;;10.65;6.57;;;;;;;13.77;35.69;100317.69;4468053;32;34661;-67
2022/04/12 06:10:14;;;;;;;8.50;5.57;;;;;;;14.16;36.37;100321.09;4477695;32;34424;-66
2022/04/12 06:12:42;;;;;;;7.75;4.85;;;;;;;13.54;34.91;100322.34;4483442;32;34785;-68
2022/04/12 06:15:09;;;;;;;8.30;4.97;;;;;;;14.20;33.25;100322.22;4484163;32;34858;-69
2022/04/12 06:17:38;;;;;;;8.65;4.85;;;;;;;13.81;33.38;100324.28;4484084;32;33943;-66
2022/04/12 06:20:19;;;;;;;7.72;4.95;;;;;;;14.24;31.78;100331.56;4482649;32;33235;-66
2022/04/12 06:22:47;;;;;;;7.95;4.75;;;;;;;13.49;33.20;100327.75;4472454;32;34082;-70
2022/04/12 06:25:16;;;;;;;8.07;5.07;;;;;;;12.20;35.09;100329.59;4476526;32;34948;-66
2022/04/12 06:27:51;;;;;;;9.07;5.65;;;;;;;12.92;33.31;100337.84;4483078;32;34045;-68
2022/04/12 06:30:25;;;;;;;8.35;4.93;;;;;;;12.47;34.16;100333.34;4477164;32;33597;-66
2022/04/12 06:32:53;;;;;;;7.47;4.90;;;;;;;13.26;33.37;100337.78;4484185;32;33946;-67
2022/04/12 06:35:21;;;;;;;9.15;4.60;;;;;;;12.86;35.29;100338.03;4480955;32;34246;-68
2022/04/12 06:37:53;;;;;;;9.70;4.78;;;;;;;12.73;33.91;100336.47;4469471;32;33931;-68
2022/04/12 06:40:21;;;;;;;8.50;4.35;;;;;;;12.23;34.93;100342.72;4469425;32;33494;-69
2022/04/12 06:42:50;;;;;;;7.25;4.50;;;;;;;11.72;36.01;100345.28;4467885;32;34828;-65
2022/04/12 06:45:18;;;;;;;7.97;4.35;;;;;;;11.92;35.19;100339.41;4467269;32;35123;-69
2022/04/12 06:47:55;;;;;;;6.22;3.95;;;;;;;11.95;34.64;100338.97;4466766;32;33925;-65
2022/04/12 06:50:23;;;;;;;7.05;4.22;;;;;;;12.35;33.26;100343.47;4478490;32;35034;-66
2022/04/12 06:52:52;;;;;;;6.22;3.95;;;;;;;11.93;34.58;100337.56;4467802;32;34764;-69
2022/04/12 06:55:19;;;;;;;6.95;3.97;;;;;;;12.21;34.13;100336.69;4468725;32;34174;-70
2022/04/12 06:57:47;;;;;;;7.22;3.95;;;;;;;13.08;32.83;100340.78;4467939;32;33587;-69
2022/04/12 07:00:17;;;;;;;6.93;4.07;;;;;;;13.19;32.10;100344.47;4467063;32;34388;-70
2022/04/12 07:02:44;;;;;;;7.40;4.07;;;;;;;13.65;32.02;100337.75;4468719;32;33618;-71
2022/04/12 07:05:12;;;;;;;8.45;4.35;;;;;;;14.17;31.10;100330.94;4468571;32;34256;-69
2022/04/12 07:07:41;;;;;;;6.20;3.97;;;;;;;15.12;29.23;100333.06;4469004;32;33765;-70
2022/04/12 07:10:10;;;;;;;6.60;4.20;;;;;;;14.33;30.24;100335.44;4467948;32;33312;-69
2022/04/12 07:12:38;;;;;;;7.30;4.35;;;;;;;14.15;31.21;100338.56;4467243;32;33705;-73
2022/04/12 07:15:07;;;;;;;7.43;4.12;;;;;;;14.20;30.55;100332.34;4467655;32;34832;-70
2022/04/12 07:17:34;;;;;;;7.12;4.05;;;;;;;14.03;31.24;100344.16;4467698;32;33651;-72
2022/04/12 07:20:02;;;;;;;6.75;4.25;;;;;;;13.93;30.95;100344.91;4468249;32;34320;-69
2022/04/12 07:22:30;;;;;;;8.55;4.03;;;;;;;13.53;32.43;100343.34;4468603;32;34374;-69
2022/04/12 07:24:57;;;;;;;6.62;4.03;;;;;;;13.00;33.76;100344.78;4467557;32;34934;-71
2022/04/12 07:27:24;;;;;;;6.18;3.85;;;;;;;13.16;33.38;100347.72;4469037;32;34079;-70
2022/04/12 07:29:52;;;;;;;7.60;4.45;;;;;;;13.14;33.36;100350.69;4478380;32;34224;-68
2022/04/12 07:32:19;;;;;;;6.25;4.30;;;;;;;12.83;33.98;100347.53;4484145;32;33861;-70
2022/04/12 07:34:47;;;;;;;7.45;4.75;;;;;;;13.30;33.42;100343.56;4484029;32;34034;-68
2022/04/12 07:37:14;;;;;;;7.75;4.57;;;;;;;13.16;33.04;100345.81;4484633;32;35038;-68
2022/04/12 07:39:42;;;;;;;9.40;4.95;;;;;;;13.26;33.55;100347.84;4484392;32;34259;-68
2022/04/12 07:42:09;;;;;;;8.32;4.85;;;;;;;12.72;35.23;100352.00;4483803;32;34618;-67
2022/04/12 07:44:37;;;;;;;7.03;4.57;;;;;;;12.86;33.58;100351.66;4484349;32;34961;-68
2022/04/12 07:47:04;;;;;;;7.15;4.28;;;;;;;13.58;33.68;100349.94;4484415;32;33689;-68
2022/04/12 07:49:32;;;;;;;8.32;4.70;;;;;;;13.58;33.81;100353.47;4483320;32;34163;-66
2022/04/12 07:52:00;;;;;;;8.73;4.45;;;;;;;13.47;33.33;100355.25;4483684;32;34250;-69
2022/04/12 07:54:27;;;;;;;8.23;4.82;;;;;;;13.70;31.48;100350.62;4480690;32;34152;-69
2022/04/12 07:56:54;;;;;;;8.05;4.70;;;;;;;13.65;32.88;100351.41;4483691;32;34708;-66
2022/04/12 07:59:22;;;;;;;7.37;4.30;;;;;;;14.68;32.23;100360.62;4484362;32;33487;-65
2022/04/12 08:01:49;;;;;;;7.62;4.55;;;;;;;13.91;31.11;100357.16;4483820;32;33585;-69
2022/04/12 08:04:17;;;;;;;10.63;5.03;;;;;;;13.66;32.05;100353.03;4483902;32;34085;-68
2022/04/12 08:06:45;;;;;;;7.47;4.82;;;;;;;14.41;31.59;100358.72;4482634;32;33692;-70
2022/04/12 08:09:13;;;;;;;8.65;4.47;;;;;;;14.18;31.25;100365.31;4482827;32;33551;-69
2022/04/12 08:11:40;;;;;;;8.18;4.30;;;;;;;13.92;31.98;100364.25;4483721;32;34002;-68
2022/04/12 08:14:08;;;;;;;8.10;4.85;;;;;;;13.95;31.13;100361.84;4484064;32;34062;-70
2022/04/12 08:16:35;;;;;;;7.20;4.35;;;;;;;13.56;31.53;100363.81;4483907;32;33813;-72
2022/04/12 08:19:03;;;;;;;7.35;4.70;;;;;;;13.72;31.59;100364.84;4483721;32;33061;-67
2022/04/12 08:21:36;;;;;;;8.38;4.40;;;;;;;13.97;31.55;100368.91;4483936;32;34696;-68
2022/04/12 08:24:04;;;;;;;7.53;4.78;;;;;;;13.70;31.39;100370.53;4483914;32;34158;-68
2022/04/12 08:26:32;;;;;;;8.82;4.05;;;;;;;12.93;33.66;100371.34;4483254;32;33931;-67
2022/04/12 08:28:59;;;;;;;6.35;4.05;;;;;;;13.60;32.20;100369.59;4483955;32;34516;-69
2022/04/12 08:31:27;;;;;;;6.60;3.95;;;;;;;13.36;33.00;100366.28;4481601;32;35045;-68
2022/04/12 08:33:54;;;;;;;7.15;4.55;;;;;;;14.29;30.71;100367.06;4483723;32;33948;-69
2022/04/12 08:36:22;;;;;;;7.25;4.18;;;;;;;13.92;32.46;100366.97;4483913;32;34767;-68
2022/04/12 08:38:53;;;;;;;5.47;3.65;;;;;;;14.56;31.90;100369.00;4483587;32;34794;-69
2022/04/12 08:41:23;;;;;;;5.57;3.15;;;;;;;14.50;29.61;100373.56;4482294;32;33993;-69
2022/04/12 08:43:58;;;;;;;6.15;3.83;;;;;;;15.43;27.28;100371.50;4483561;32;34311;-67
2022/04/12 08:46:27;;;;;;;5.65;3.78;;;;;;;15.08;29.28;100362.00;4483293;32;33825;-69
2022/04/12 08:48:57;;;;;;;6.18;3.67;;;;;;;15.86;30.24;100369.53;4483540;32;33247;-69
2022/04/12 08:51:28;;;;;;;7.47;3.37;;;;;;;15.79;28.99;100370.59;4481953;32;33994;-68
2022/04/12 08:53:57;;;;;;;7.62;4.60;;;;;;;16.68;25.70;100378.69;4483375;32;34166;-69
2022/04/12 08:56:26;;;;;;;4.97;2.70;;;;;;;17.25;27.08;100370.41;4483330;32;33774;-70
2022/04/12 08:58:54;;;;;;;4.62;3.10;;;;;;;17.61;25.56;100374.69;4483225;32;33986;-71
2022/04/12 09:01:38;;;;;;;4.95;3.12;;;;;;;17.67;25.02;100374.66;4483709;32;33843;-71
2022/04/12 09:04:06;;;;;;;6.22;3.05;;;;;;;17.43;25.23;100372.56;4482226;32;34158;-72
2022/04/12 09:06:33;;;;;;;4.50;2.60;;;;;;;17.11;24.32;100370.19;4482966;32;34780;-72
2022/04/12 09:09:15;;;;;;;4.75;2.72;;;;;;;16.75;24.36;100365.53;4483135;32;33584;-71
2022/04/12 09:11:43;;;;;;;5.07;3.40;;;;;;;15.59;26.61;100359.53;4482872;32;34009;-71
2022/04/12 09:14:14;;;;;;;4.95;2.75;;;;;;;15.19;28.82;100358.25;4482979;32;34746;-72
2022/04/12 09:16:45;;;;;;;5.40;3.03;;;;;;;14.96;28.05;100343.88;4483109;32;35106;-71
2022/04/12 09:19:12;;;;;;;5.30;3.12;;;;;;;14.05;30.79;100357.56;4483283;32;34304;-72
2022/04/12 09:21:47;;;;;;;5.00;3.10;;;;;;;14.72;29.49;100354.38;4482859;32;34692;-71
2022/04/12 09:24:21;;;;;;;5.15;2.83;;;;;;;14.20;29.02;100344.06;4482458;32;34126;-71
2022/04/12 09:26:56;;;;;;;6.20;2.75;;;;;;;14.15;29.58;100342.13;4482067;32;34349;-72
2022/04/12 09:29:27;;;;;;;;;;;;;;;14.54;29.17;100346.56;4483282;32;34072;-71
2022/04/12 09:31:58;;;;;;;6.03;3.58;;;;;;;14.63;28.75;100346.94;4483039;32;34153;-73
2022/04/12 09:34:26;;;;;;;4.68;2.92;;;;;;;15.06;28.76;100339.59;4482933;32;34448;-72
2022/04/12 09:37:27;;;;;;;;;;;;;;;15.59;26.69;100348.56;4483184;32;34737;-72
2022/04/12 09:40:01;;;;;;;6.10;3.65;;;;;;;15.30;27.80;100342.72;4482868;32;34227;-72
2022/04/12 09:42:44;;;;;;;8.15;3.40;;;;;;;15.29;28.10;100338.31;4481252;32;35365;-73
2022/04/12 09:45:24;;;;;;;6.25;3.45;;;;;;;15.63;28.11;100346.16;4480086;32;34191;-69
2022/04/12 09:48:04;;;;;;;5.70;3.20;;;;;;;16.17;28.09;100340.28;4479889;32;34794;-70
2022/04/12 09:50:59;;;;;;;6.20;3.35;;;;;;;16.24;27.47;100329.91;4483965;32;34010;-70
2022/04/12 09:53:37;;;;;;;5.17;2.97;;;;;;;16.83;28.36;100335.97;4483406;32;34000;-70
2022/04/12 09:56:19;;;;;;;6.28;3.33;;;;;;;17.07;30.57;100334.28;4484945;32;34399;-67
2022/04/12 09:58:58;;;;;;;6.80;3.58;;;;;;;16.34;27.09;100320.88;4483732;32;33890;-67
2022/04/12 10:01:27;;;;;;;5.53;3.20;;;;;;;14.94;28.32;100323.38;4483714;32;33454;-73
2022/04/12 10:03:57;;;;;;;5.00;3.22;;;;;;;13.94;31.41;100326.62;4483489;32;34554;-71
2022/04/12 10:06:27;;;;;;;6.35;3.45;;;;;;;14.76;31.41;100319.97;4484417;32;34316;-71
2022/04/12 10:08:57;;;;;;;6.25;3.67;;;;;;;15.95;28.68;100318.63;4483689;32;34082;-72
2022/04/12 10:11:24;;;;;;;6.47;3.83;;;;;;;15.99;28.39;100315.09;4483680;32;34574;-73
2022/04/12 10:13:52;;;;;;;6.60;3.90;;;;;;;15.57;28.66;100316.03;4483399;32;33623;-71
2022/04/12 10:16:21;;;;;;;5.80;3.25;;;;;;;16.03;27.84;100311.81;4484579;32;34204;-70
2022/04/12 10:18:49;;;;;;;4.70;2.97;;;;;;;15.94;27.33;100304.13;4484888;32;33896;-69
2022/04/12 10:21:19;;;;;;;5.03;2.78;;;;;;;15.76;27.66;100308.19;4482350;32;34287;-70
2022/04/12 10:23:50;;;;;;;4.43;2.70;;;;;;;16.46;27.09;100302.25;4484666;32;34527;-75
2022/04/12 10:26:23;;;;;;;5.95;3.17;;;;;;;16.55;27.36;100305.28;4483638;32;34257;-76
2022/04/12 10:28:52;;;;;;;6.15;3.65;;;;;;;16.54;26.51;100301.72;4483759;32;33870;-76
2022/04/12 10:31:22;;;;;;;5.10;2.90;;;;;;;15.68;27.90;100297.75;4483834;32;33092;-73
2022/04/12 10:34:12;;;;;;;5.50;3.03;;;;;;;16.21;27.47;100283.91;4484840;32;34073;-72
2022/04/12 10:36:55;;;;;;;5.72;3.20;;;;;;;16.30;28.49;100286.91;4483333;32;34806;-73
2022/04/12 10:39:51;;;;;;;6.45;3.47;;;;;;;17.01;25.82;100288.78;4484992;32;34118;-79
2022/04/12 10:42:26;;;;;;;5.40;3.42;;;;;;;15.61;28.59;100282.69;4477289;32;34031;-75
2022/04/12 10:44:57;;;;;;;5.25;3.37;;;;;;;16.73;26.95;100281.97;4485060;32;33938;-71
2022/04/12 10:47:32;;;;;;;5.35;3.28;;;;;;;16.70;28.14;100271.56;4484664;32;34134;-70
2022/04/12 10:50:03;;;;;;;4.45;2.85;;;;;;;17.10;27.02;100284.34;4470879;32;33954;-76
2022/04/12 10:52:37;;;;;;;5.57;3.15;;;;;;;16.48;27.89;100282.78;4484539;32;33172;-71
2022/04/12 10:55:07;;;;;;;6.90;3.28;;;;;;;16.95;28.10;100279.75;4484212;32;34132;-71
2022/04/12 10:57:39;;;;;;;5.82;3.05;;;;;;;17.18;28.81;100272.00;4458182;32;32652;-72
2022/04/12 11:00:15;;;;;;;4.90;3.03;;;;;;;17.95;24.34;100271.63;4470597;32;34040;-70
2022/04/12 11:02:45;;;;;;;4.32;2.70;;;;;;;18.38;26.31;100260.84;4481617;32;34383;-68
2022/04/12 11:05:42;;;;;;;5.10;3.00;;;;;;;18.40;26.60;100259.47;4457181;32;33025;-70
2022/04/12 11:08:16;;;;;;;6.03;3.40;;;;;;;17.49;27.25;100258.97;4476483;32;33978;-70
2022/04/12 11:10:52;;;;;;;4.97;3.05;;;;;;;18.03;24.75;100257.28;4484531;32;33643;-71
2022/04/12 11:13:21;;;;;;;5.45;3.20;;;;;;;17.54;25.49;100263.63;4484096;32;33151;-71
2022/04/12 11:15:56;;;;;;;6.22;3.30;;;;;;;17.36;25.60;100256.84;4471538;32;34090;-72
2022/04/12 11:18:24;;;;;;;4.70;2.47;;;;;;;17.79;25.34;100248.91;4468862;32;34242;-71
2022/04/12 11:21:02;;;;;;;4.55;2.80;;;;;;;17.64;26.40;100241.59;4467775;32;33587;-72
2022/04/12 11:23:48;;;;;;;5.90;3.10;;;;;;;17.15;27.20;100235.00;4454368;32;33710;-72
2022/04/12 11:26:38;;;;;;;5.53;3.15;;;;;;;17.52;27.74;100243.87;4468458;32;33750;-71
2022/04/12 11:29:14;;;;;;;5.70;3.30;;;;;;;17.36;26.91;100232.97;4467159;31;33942;-72
2022/04/12 11:31:56;;;;;;;4.82;3.00;;;;;;;16.91;26.27;100226.59;4467942;32;35168;-73
2022/04/12 11:34:28;;;;;;;7.07;3.22;;;;;;;16.27;27.55;100227.25;4467118;32;34485;-73
2022/04/12 11:37:01;;;;;;;5.25;3.10;;;;;;;16.52;26.90;100237.31;4468059;32;33765;-72
2022/04/12 11:39:36;;;;;;;6.35;3.28;;;;;;;16.22;27.51;100232.69;4468125;32;35138;-71
2022/04/12 11:42:09;;;;;;;4.53;2.87;;;;;;;16.46;26.78;100228.31;4468063;32;34328;-73